Terminal Aerodrome Forecast
Issued by NWS Cleveland, OH

Home | Current Version | Previous Version | Text Only | Print | Product List | Glossary Off
Versions: 1 2 3 4 5 6 7 8 9 10 11 12 13 14 15

000
FTUS41 KCLE 281100
TAFYNG
TAF
KYNG 281135Z 2812/2912 20010KT P6SM SCT120 OVC250 WS020/22040KT
     FM281400 21015G25KT P6SM SCT040 OVC120
     FM281900 22020G32KT 5SM SHRA OVC035
      TEMPO 2819/2822 3SM TSRA OVC025CB
     FM282300 25015G25KT 5SM -SHRA OVC025=

USA.gov is the U.S. government's official web portal to all federal, state and local government web resources and services.